Time,TemperatureF,DewpointF,PressureIn,WindDirection,WindDirectionDegrees,WindSpeedMPH,WindSpeedGustMPH,Humidity,HourlyPrecipIn,Conditions,Clouds,dailyrainin,SoftwareType,DateUTC
2013-03-16 00:13:00,61.9,45.0,29.61,NW,315,0.0,1.0,54,0.00,,,0.00,weatherlink.com 1.10,2013-03-16 05:13:00,
2013-03-16 00:28:00,63.4,45.0,29.63,NW,309,1.0,5.0,52,0.00,,,0.00,weatherlink.com 1.10,2013-03-16 05:28:00,
2013-03-16 00:43:00,61.8,44.0,29.63,WNW,295,3.0,9.0,53,0.00,,,0.00,weatherlink.com 1.10,2013-03-16 05:43:00,
2013-03-16 00:58:00,60.0,44.0,29.64,WNW,301,1.0,6.0,56,0.00,,,0.00,weatherlink.com 1.10,2013-03-16 05:58:00,
2013-03-16 01:13:00,58.4,44.0,29.65,WNW,297,2.0,9.0,59,0.00,,,0.00,weatherlink.com 1.10,2013-03-16 06:13:00,
2013-03-16 01:28:00,57.2,44.0,29.66,WNW,300,3.0,6.0,62,0.00,,,0.00,weatherlink.com 1.10,2013-03-16 06:28:00,
2013-03-16 01:44:00,56.6,45.0,29.66,NNW,345,1.0,11.0,65,0.00,,,0.00,weatherlink.com 1.10,2013-03-16 06:44:00,
2013-03-16 01:58:00,55.6,45.0,29.67,WNW,295,0.0,9.0,67,0.00,,,0.00,weatherlink.com 1.10,2013-03-16 06:58:00,
2013-03-16 02:13:00,54.3,45.0,29.68,NW,314,2.0,10.0,70,0.00,,,0.00,weatherlink.com 1.10,2013-03-16 07:13:00,
2013-03-16 02:28:00,53.0,44.0,29.70,NW,326,3.0,9.0,72,0.00,,,0.00,weatherlink.com 1.10,2013-03-16 07:28:00,
2013-03-16 02:43:00,52.0,43.0,29.70,WNW,298,3.0,7.0,72,0.00,,,0.00,weatherlink.com 1.10,2013-03-16 07:43:00,
2013-03-16 02:58:00,51.3,43.0,29.71,WNW,292,2.0,5.0,73,0.00,,,0.00,weatherlink.com 1.10,2013-03-16 07:58:00,
2013-03-16 03:13:00,50.5,41.0,29.71,West,277,1.0,8.0,71,0.00,,,0.00,weatherlink.com 1.10,2013-03-16 08:13:00,
2013-03-16 03:29:00,49.7,41.0,29.72,NNE,31,1.0,5.0,72,0.00,,,0.00,weatherlink.com 1.10,2013-03-16 08:29:00,
2013-03-16 03:44:00,49.2,41.0,29.72,North,351,2.0,4.0,73,0.00,,,0.00,weatherlink.com 1.10,2013-03-16 08:44:00,
2013-03-16 03:59:00,48.5,40.0,29.73,North,11,1.0,4.0,73,0.00,,,0.00,weatherlink.com 1.10,2013-03-16 08:59:00,
2013-03-16 04:14:00,48.0,39.0,29.73,NW,314,2.0,8.0,71,0.00,,,0.00,weatherlink.com 1.10,2013-03-16 09:14:00,
2013-03-16 04:29:00,47.5,39.0,29.73,North,359,0.0,10.0,71,0.00,,,0.00,weatherlink.com 1.10,2013-03-16 09:29:00,
2013-03-16 04:44:00,46.8,39.0,29.74,WNW,294,3.0,8.0,73,0.00,,,0.00,weatherlink.com 1.10,2013-03-16 09:44:00,
2013-03-16 04:59:00,45.7,39.0,29.76,WNW,291,1.0,11.0,76,0.00,,,0.00,weatherlink.com 1.10,2013-03-16 09:59:00,
2013-03-16 05:14:00,44.5,38.0,29.78,NNW,327,0.0,7.0,78,0.00,,,0.00,weatherlink.com 1.10,2013-03-16 10:14:00,
2013-03-16 05:29:00,43.8,38.0,29.80,North,5,0.0,5.0,80,0.00,,,0.00,weatherlink.com 1.10,2013-03-16 10:29:00,
2013-03-16 05:44:00,43.1,38.0,29.81,NNW,335,1.0,7.0,81,0.00,,,0.00,weatherlink.com 1.10,2013-03-16 10:44:00,
2013-03-16 05:59:00,42.3,37.0,29.82,WNW,297,1.0,5.0,82,0.00,,,0.00,weatherlink.com 1.10,2013-03-16 10:59:00,
2013-03-16 06:14:00,41.6,37.0,29.83,WNW,288,0.0,7.0,82,0.00,,,0.00,weatherlink.com 1.10,2013-03-16 11:14:00,
2013-03-16 06:29:00,41.1,36.0,29.85,ENE,64,0.0,7.0,82,0.00,,,0.00,weatherlink.com 1.10,2013-03-16 11:29:00,
2013-03-16 06:44:00,40.2,35.0,29.84,NW,316,3.0,10.0,82,0.00,,,0.00,weatherlink.com 1.10,2013-03-16 11:44:00,
2013-03-16 06:59:00,39.8,35.0,29.86,NE,51,0.0,8.0,83,0.00,,,0.00,weatherlink.com 1.10,2013-03-16 11:59:00,
2013-03-16 07:14:00,40.0,35.0,29.86,SSE,156,0.0,8.0,83,0.00,,,0.00,weatherlink.com 1.10,2013-03-16 12:14:00,
2013-03-16 07:29:00,39.8,35.0,29.86,ESE,108,1.0,5.0,83,0.00,,,0.00,weatherlink.com 1.10,2013-03-16 12:29:00,
2013-03-16 07:44:00,39.5,34.0,29.87,NE,51,0.0,7.0,82,0.00,,,0.00,weatherlink.com 1.10,2013-03-16 12:44:00,
2013-03-16 07:59:00,39.3,35.0,29.86,NW,322,0.0,7.0,83,0.00,,,0.00,weatherlink.com 1.10,2013-03-16 12:59:00,
2013-03-16 08:15:00,39.4,35.0,29.86,West,271,0.0,7.0,83,0.00,,,0.00,weatherlink.com 1.10,2013-03-16 13:15:00,
2013-03-16 08:30:00,39.6,35.0,29.87,NNE,16,2.0,8.0,82,0.00,,,0.00,weatherlink.com 1.10,2013-03-16 13:30:00,
2013-03-16 08:45:00,39.7,35.0,29.88,NNE,15,0.0,5.0,82,0.00,,,0.00,weatherlink.com 1.10,2013-03-16 13:45:00,
2013-03-16 09:00:00,39.6,35.0,29.89,ENE,57,1.0,8.0,83,0.00,,,0.00,weatherlink.com 1.10,2013-03-16 14:00:00,
2013-03-16 09:15:00,39.8,35.0,29.90,NNE,25,2.0,6.0,82,0.00,,,0.00,weatherlink.com 1.10,2013-03-16 14:15:00,
2013-03-16 09:30:00,39.9,35.0,29.91,NE,46,2.0,5.0,82,0.00,,,0.00,weatherlink.com 1.10,2013-03-16 14:30:00,
2013-03-16 09:45:00,39.9,35.0,29.91,North,354,0.0,5.0,82,0.00,,,0.00,weatherlink.com 1.10,2013-03-16 14:45:00,
2013-03-16 10:00:00,40.2,35.0,29.91,NE,46,0.0,10.0,81,0.00,,,0.00,weatherlink.com 1.10,2013-03-16 15:00:00,
2013-03-16 10:15:00,40.5,34.0,29.93,ENE,66,2.0,7.0,79,0.00,,,0.00,weatherlink.com 1.10,2013-03-16 15:15:00,
2013-03-16 10:45:00,40.6,34.0,29.93,NNE,18,1.0,5.0,78,0.00,,,0.00,weatherlink.com 1.10,2013-03-16 15:45:00,
2013-03-16 11:00:00,40.4,34.0,29.93,NNE,21,4.0,6.0,77,0.00,,,0.00,weatherlink.com 1.10,2013-03-16 16:00:00,
2013-03-16 11:16:00,40.5,33.0,29.94,North,6,1.0,5.0,75,0.00,,,0.00,weatherlink.com 1.10,2013-03-16 16:16:00,
2013-03-16 11:31:00,41.2,33.0,29.94,NNE,30,1.0,5.0,73,0.00,,,0.00,weatherlink.com 1.10,2013-03-16 16:31:00,
2013-03-16 11:46:00,42.1,33.0,29.95,NE,53,0.0,7.0,70,0.00,,,0.00,weatherlink.com 1.10,2013-03-16 16:46:00,
2013-03-16 12:03:00,43.0,33.0,29.97,North,9,0.0,8.0,67,0.00,,,0.00,weatherlink.com 1.10,2013-03-16 17:03:00,
2013-03-16 12:15:00,43.7,33.0,29.95,NW,316,0.0,4.0,66,0.00,,,0.00,weatherlink.com 1.10,2013-03-16 17:15:00,
2013-03-16 12:30:00,44.1,33.0,29.95,WNW,295,1.0,7.0,64,0.00,,,0.00,weatherlink.com 1.10,2013-03-16 17:30:00,
2013-03-16 12:45:00,44.7,33.0,29.96,WSW,255,3.0,4.0,63,0.00,,,0.00,weatherlink.com 1.10,2013-03-16 17:45:00,
2013-03-16 13:00:00,44.6,33.0,29.96,NW,308,2.0,10.0,63,0.00,,,0.00,weatherlink.com 1.10,2013-03-16 18:00:00,
2013-03-16 13:15:00,44.7,32.0,29.96,WNW,298,0.0,10.0,62,0.00,,,0.00,weatherlink.com 1.10,2013-03-16 18:15:00,
2013-03-16 13:30:00,45.0,32.0,29.95,NW,309,3.0,11.0,61,0.00,,,0.00,weatherlink.com 1.10,2013-03-16 18:30:00,
2013-03-16 13:45:00,45.0,33.0,29.95,WNW,290,2.0,7.0,63,0.00,,,0.00,weatherlink.com 1.10,2013-03-16 18:45:00,
2013-03-16 14:00:00,45.9,33.0,29.94,NW,322,0.0,8.0,60,0.00,,,0.00,weatherlink.com 1.10,2013-03-16 19:00:00,
2013-03-16 14:15:00,45.0,32.0,29.95,West,276,5.0,6.0,61,0.00,,,0.00,weatherlink.com 1.10,2013-03-16 19:15:00,
2013-03-16 14:30:00,44.9,32.0,29.94,NNE,27,0.0,8.0,61,0.00,,,0.00,weatherlink.com 1.10,2013-03-16 19:30:00,
2013-03-16 14:45:00,45.0,32.0,29.93,NE,43,2.0,9.0,61,0.00,,,0.00,weatherlink.com 1.10,2013-03-16 19:45:00,
2013-03-16 15:00:00,45.8,32.0,29.93,NE,34,2.0,4.0,59,0.00,,,0.00,weatherlink.com 1.10,2013-03-16 20:00:00,
2013-03-16 15:15:00,46.2,32.0,29.93,North,360,2.0,6.0,59,0.00,,,0.00,weatherlink.com 1.10,2013-03-16 20:15:00,
2013-03-16 15:30:00,45.4,32.0,29.93,NNW,329,0.0,7.0,60,0.00,,,0.00,weatherlink.com 1.10,2013-03-16 20:30:00,
2013-03-16 15:45:00,45.3,32.0,29.93,East,97,0.0,5.0,60,0.00,,,0.00,weatherlink.com 1.10,2013-03-16 20:45:00,
2013-03-16 16:00:00,44.3,31.0,29.93,ENE,75,5.0,7.0,61,0.00,,,0.00,weatherlink.com 1.10,2013-03-16 21:00:00,
2013-03-16 16:16:00,44.3,31.0,29.93,ENE,65,2.0,6.0,61,0.00,,,0.00,weatherlink.com 1.10,2013-03-16 21:16:00,
2013-03-16 16:30:00,44.1,31.0,29.95,NE,34,1.0,8.0,61,0.00,,,0.00,weatherlink.com 1.10,2013-03-16 21:30:00,
2013-03-16 16:45:00,44.2,32.0,29.94,WNW,291,0.0,4.0,62,0.00,,,0.00,weatherlink.com 1.10,2013-03-16 21:45:00,
2013-03-16 17:00:00,43.9,31.0,29.95,NW,309,1.0,6.0,62,0.00,,,0.00,weatherlink.com 1.10,2013-03-16 22:00:00,
2013-03-16 17:15:00,43.9,31.0,29.95,NE,54,1.0,9.0,62,0.00,,,0.00,weatherlink.com 1.10,2013-03-16 22:15:00,
2013-03-16 17:30:00,43.7,31.0,29.95,ENE,57,0.0,6.0,62,0.00,,,0.00,weatherlink.com 1.10,2013-03-16 22:30:00,
2013-03-16 17:45:00,43.6,31.0,29.95,East,83,0.0,5.0,62,0.00,,,0.00,weatherlink.com 1.10,2013-03-16 22:45:00,
2013-03-16 18:00:00,43.4,31.0,29.95,NE,40,0.0,5.0,62,0.00,,,0.00,weatherlink.com 1.10,2013-03-16 23:00:00,
2013-03-16 18:15:00,43.1,31.0,29.95,ENE,65,0.0,5.0,63,0.00,,,0.00,weatherlink.com 1.10,2013-03-16 23:15:00,
2013-03-16 18:30:00,42.7,31.0,29.95,North,360,0.0,6.0,64,0.00,,,0.00,weatherlink.com 1.10,2013-03-16 23:30:00,
2013-03-16 18:45:00,42.4,31.0,29.95,NNE,21,2.0,8.0,64,0.00,,,0.00,weatherlink.com 1.10,2013-03-16 23:45:00,
2013-03-16 19:00:00,41.9,31.0,29.96,NE,40,0.0,3.0,66,0.00,,,0.00,weatherlink.com 1.10,2013-03-17 00:00:00,
2013-03-16 19:15:00,41.4,31.0,29.96,NE,44,0.0,5.0,66,0.00,,,0.00,weatherlink.com 1.10,2013-03-17 00:15:00,
2013-03-16 19:30:00,41.0,30.0,29.97,East,100,0.0,7.0,66,0.00,,,0.00,weatherlink.com 1.10,2013-03-17 00:30:00,
2013-03-16 19:46:00,40.7,30.0,29.97,NE,53,1.0,6.0,67,0.00,,,0.00,weatherlink.com 1.10,2013-03-17 00:46:00,
2013-03-16 20:01:00,40.4,30.0,29.97,NE,37,2.0,8.0,67,0.00,,,0.00,weatherlink.com 1.10,2013-03-17 01:01:00,
2013-03-16 20:16:00,40.0,30.0,29.98,ENE,68,3.0,5.0,67,0.00,,,0.00,weatherlink.com 1.10,2013-03-17 01:16:00,
2013-03-16 20:31:00,39.6,29.0,29.98,NE,46,0.0,7.0,67,0.00,,,0.00,weatherlink.com 1.10,2013-03-17 01:31:00,
2013-03-16 20:46:00,39.2,29.0,29.99,NE,36,2.0,5.0,66,0.00,,,0.00,weatherlink.com 1.10,2013-03-17 01:46:00,
2013-03-16 21:16:00,38.6,28.0,30.00,ENE,59,2.0,9.0,67,0.00,,,0.00,weatherlink.com 1.10,2013-03-17 02:16:00,
2013-03-16 21:31:00,38.3,28.0,30.00,ENE,77,3.0,7.0,67,0.00,,,0.00,weatherlink.com 1.10,2013-03-17 02:31:00,
2013-03-16 21:46:00,37.9,28.0,29.99,ENE,77,2.0,8.0,67,0.00,,,0.00,weatherlink.com 1.10,2013-03-17 02:46:00,
2013-03-16 22:01:00,37.7,28.0,29.99,ESE,102,0.0,10.0,67,0.00,,,0.00,weatherlink.com 1.10,2013-03-17 03:01:00,
2013-03-16 22:16:00,37.6,28.0,30.00,East,83,0.0,8.0,68,0.00,,,0.00,weatherlink.com 1.10,2013-03-17 03:16:00,
2013-03-16 22:31:00,37.5,28.0,30.00,NNE,20,2.0,7.0,68,0.00,,,0.00,weatherlink.com 1.10,2013-03-17 03:31:00,
2013-03-16 22:46:00,37.3,28.0,30.00,ENE,62,1.0,10.0,68,0.00,,,0.00,weatherlink.com 1.10,2013-03-17 03:46:00,
2013-03-16 23:16:00,37.1,28.0,30.02,NE,34,1.0,7.0,70,0.00,,,0.00,weatherlink.com 1.10,2013-03-17 04:16:00,
2013-03-16 23:31:00,37.0,28.0,30.02,ESE,120,0.0,6.0,70,0.00,,,0.00,weatherlink.com 1.10,2013-03-17 04:31:00,
2013-03-16 23:46:00,36.7,28.0,30.03,NE,38,0.0,6.0,71,0.00,,,0.00,weatherlink.com 1.10,2013-03-17 04:46:00,